createdAt,value
2019-05-29T00:01:38.901Z,11.50
2019-05-29T00:04:08.154Z,11.40
2019-05-29T00:06:37.051Z,11.40
2019-05-29T00:09:08.107Z,11.30
2019-05-29T00:11:37.020Z,11.30
2019-05-29T00:14:21.706Z,11.20
2019-05-29T00:16:36.346Z,11.30
2019-05-29T00:19:06.848Z,11.20
2019-05-29T00:21:35.601Z,11.30
2019-05-29T00:24:04.450Z,11.20
2019-05-29T00:26:33.232Z,11.30
2019-05-29T00:29:01.987Z,11.30
2019-05-29T00:31:30.823Z,11.20
2019-05-29T00:33:59.638Z,11.20
2019-05-29T00:36:28.498Z,11.20
2019-05-29T00:38:57.435Z,11.20
2019-05-29T00:41:26.296Z,11.10
2019-05-29T00:43:55.147Z,11.10
2019-05-29T00:46:24.040Z,11.10
2019-05-29T00:48:52.759Z,11.00
2019-05-29T00:51:21.581Z,11.00
2019-05-29T00:53:50.356Z,11.00
2019-05-29T00:56:19.205Z,11.00
2019-05-29T00:58:48.043Z,11.00
2019-05-29T01:01:17.547Z,11.00
2019-05-29T01:03:46.485Z,11.00
2019-05-29T01:06:16.079Z,11.10
2019-05-29T01:08:45.017Z,11.10
2019-05-29T01:11:14.693Z,11.10
2019-05-29T01:13:43.648Z,11.10
2019-05-29T01:16:13.335Z,11.00
2019-05-29T01:18:42.327Z,11.00
2019-05-29T01:21:11.768Z,11.00
2019-05-29T01:23:40.612Z,11.00
2019-05-29T01:26:09.400Z,11.00
2019-05-29T01:28:38.221Z,10.90
2019-05-29T01:31:07.056Z,10.90
2019-05-29T01:33:35.884Z,10.90
2019-05-29T01:36:04.635Z,10.90
2019-05-29T01:38:33.506Z,10.90
2019-05-29T01:41:02.336Z,10.90
2019-05-29T01:43:31.152Z,10.80
2019-05-29T01:45:59.980Z,10.80
2019-05-29T01:48:28.828Z,10.80
2019-05-29T01:50:57.699Z,10.80
2019-05-29T01:53:26.460Z,10.80
2019-05-29T01:55:55.324Z,10.90
2019-05-29T01:58:24.225Z,10.80
2019-05-29T02:00:53.033Z,10.90
2019-05-29T02:03:22.003Z,10.80
2019-05-29T02:05:50.846Z,10.80
2019-05-29T02:08:20.063Z,10.70
2019-05-29T02:10:49.020Z,10.80
2019-05-29T02:13:17.890Z,10.80
2019-05-29T02:15:46.632Z,10.70
2019-05-29T02:18:16.708Z,10.70
2019-05-29T02:20:45.614Z,10.70
2019-05-29T02:23:14.479Z,10.70
2019-05-29T02:25:43.381Z,10.60
2019-05-29T02:28:12.165Z,10.70
2019-05-29T02:30:40.998Z,10.70
2019-05-29T02:33:09.843Z,10.70
2019-05-29T02:35:38.720Z,10.70
2019-05-29T02:38:07.515Z,10.70
2019-05-29T02:40:36.413Z,10.70
2019-05-29T02:43:05.209Z,10.60
2019-05-29T02:45:53.235Z,10.70
2019-05-29T02:48:04.435Z,10.60
2019-05-29T02:50:33.281Z,10.70
2019-05-29T02:53:02.121Z,10.70
2019-05-29T02:55:31.116Z,10.70
2019-05-29T02:57:59.990Z,10.70
2019-05-29T03:00:51.143Z,10.70
2019-05-29T03:03:21.598Z,10.70
2019-05-29T03:05:53.034Z,10.70
2019-05-29T03:08:22.405Z,10.70
2019-05-29T03:10:52.815Z,10.80
2019-05-29T03:13:23.147Z,10.80
2019-05-29T03:16:08.443Z,10.70
2019-05-29T03:18:23.996Z,10.70
2019-05-29T03:20:53.106Z,10.80
2019-05-29T03:23:21.803Z,10.90
2019-05-29T03:25:50.648Z,10.80
2019-05-29T03:28:19.443Z,10.80
2019-05-29T03:30:48.300Z,10.80
2019-05-29T03:33:17.126Z,10.80
2019-05-29T03:35:48.248Z,10.80
2019-05-29T03:38:16.637Z,10.70
2019-05-29T03:40:45.477Z,10.80
2019-05-29T03:43:14.316Z,10.90
2019-05-29T03:45:43.149Z,10.80
2019-05-29T03:48:11.988Z,10.90
2019-05-29T03:50:41.144Z,10.80
2019-05-29T03:53:10.005Z,10.80
2019-05-29T03:55:38.785Z,10.90
2019-05-29T03:58:07.633Z,10.90
2019-05-29T04:00:44.755Z,10.90
2019-05-29T04:03:06.992Z,10.90
2019-05-29T04:05:37.742Z,10.90
2019-05-29T04:08:06.205Z,10.90
2019-05-29T04:10:37.347Z,10.90
2019-05-29T04:13:05.524Z,10.90
2019-05-29T04:15:36.523Z,10.90
2019-05-29T04:18:06.567Z,10.90
2019-05-29T04:20:38.773Z,11.00
2019-05-29T04:23:08.235Z,11.00
2019-05-29T04:25:41.935Z,11.00
2019-05-29T04:28:09.209Z,11.10
2019-05-29T04:30:39.082Z,11.30
2019-05-29T04:33:08.305Z,11.40
2019-05-29T04:35:39.382Z,11.60
2019-05-29T04:38:07.705Z,11.60
2019-05-29T04:40:37.386Z,11.70
2019-05-29T04:43:07.113Z,11.70
2019-05-29T04:45:39.261Z,11.60
2019-05-29T04:48:06.476Z,11.50
2019-05-29T04:50:36.459Z,11.60
2019-05-29T04:53:05.731Z,11.50
2019-05-29T04:55:34.806Z,11.60
2019-05-29T04:58:03.820Z,11.70
2019-05-29T05:00:33.070Z,11.80
2019-05-29T05:03:02.040Z,11.90
2019-05-29T05:05:31.192Z,11.90
2019-05-29T05:08:00.232Z,12.10
2019-05-29T05:10:40.897Z,12.00
2019-05-29T05:13:10.162Z,11.90
2019-05-29T05:15:43.781Z,11.70
2019-05-29T05:18:12.583Z,11.80
2019-05-29T05:20:41.469Z,11.80
2019-05-29T05:23:10.254Z,11.90
2019-05-29T05:25:41.040Z,11.90
2019-05-29T05:28:10.068Z,12.00
2019-05-29T05:30:40.633Z,12.00
2019-05-29T05:33:09.817Z,12.10
2019-05-29T05:35:38.840Z,12.10
2019-05-29T05:38:07.847Z,12.10
2019-05-29T05:40:39.397Z,12.00
2019-05-29T05:43:21.025Z,12.00
2019-05-29T05:45:39.123Z,12.10
2019-05-29T05:48:08.082Z,12.20
2019-05-29T05:50:37.318Z,12.30
2019-05-29T05:53:06.174Z,12.60
2019-05-29T05:55:37.604Z,12.90
2019-05-29T05:58:06.574Z,13.00
2019-05-29T06:00:38.011Z,13.00
2019-05-29T06:03:07.501Z,13.00
2019-05-29T06:05:36.451Z,13.00
2019-05-29T06:08:05.355Z,12.70
2019-05-29T06:10:34.183Z,12.70
2019-05-29T06:13:03.347Z,12.80
2019-05-29T06:15:51.432Z,13.00
2019-05-29T06:18:21.963Z,13.00
2019-05-29T06:20:51.027Z,13.00
2019-05-29T06:23:19.868Z,13.00
2019-05-29T06:25:49.680Z,13.20
2019-05-29T06:28:18.502Z,13.20
2019-05-29T06:30:47.270Z,13.00
2019-05-29T06:33:17.336Z,13.00
2019-05-29T06:35:46.180Z,12.90
2019-05-29T06:38:15.082Z,13.00
2019-05-29T06:40:45.556Z,13.20
2019-05-29T06:43:22.565Z,13.50
2019-05-29T06:45:55.588Z,13.50
2019-05-29T06:48:42.544Z,13.60
2019-05-29T06:50:59.146Z,13.70
2019-05-29T06:53:27.969Z,13.90
2019-05-29T06:55:58.085Z,13.90
2019-05-29T06:58:27.316Z,14.10
2019-05-29T07:00:56.259Z,14.20
2019-05-29T07:03:26.072Z,14.30
2019-05-29T07:05:54.920Z,14.50
2019-05-29T07:08:37.400Z,14.70
2019-05-29T07:10:54.294Z,14.60
2019-05-29T07:13:23.108Z,14.70
2019-05-29T07:15:51.985Z,14.70
2019-05-29T07:18:20.806Z,14.80
2019-05-29T07:20:49.660Z,14.70
2019-05-29T07:23:18.557Z,14.70
2019-05-29T07:25:47.532Z,14.70
2019-05-29T07:28:16.455Z,14.60
2019-05-29T07:30:53.626Z,14.40
2019-05-29T07:33:15.740Z,14.30
2019-05-29T07:35:45.697Z,14.30
2019-05-29T07:38:14.682Z,14.50
2019-05-29T07:40:47.166Z,14.70
2019-05-29T07:43:13.920Z,14.70
2019-05-29T07:45:43.955Z,14.90
2019-05-29T07:48:14.037Z,15.20
2019-05-29T07:50:43.962Z,15.70
2019-05-29T07:53:12.965Z,16.00
2019-05-29T07:55:42.574Z,16.20
2019-05-29T07:58:11.517Z,16.50
2019-05-29T08:01:01.291Z,16.70
2019-05-29T08:03:10.854Z,17.10
2019-05-29T08:05:41.083Z,17.50
2019-05-29T08:08:10.339Z,17.80
2019-05-29T08:10:39.973Z,17.90
2019-05-29T08:13:10.501Z,18.10
2019-05-29T08:15:54.153Z,17.50
2019-05-29T08:18:09.975Z,17.40
2019-05-29T08:20:39.763Z,17.30
2019-05-29T08:23:08.739Z,17.20
2019-05-29T08:25:37.564Z,17.20
2019-05-29T08:28:06.418Z,17.30
2019-05-29T08:30:35.314Z,17.50
2019-05-29T08:33:04.066Z,17.70
2019-05-29T08:35:34.223Z,17.80
2019-05-29T08:38:03.041Z,17.80
2019-05-29T08:40:31.902Z,18.00
2019-05-29T08:43:00.762Z,18.40
2019-05-29T08:45:29.744Z,18.30
2019-05-29T08:47:59.166Z,18.00
2019-05-29T08:50:27.992Z,18.00
2019-05-29T08:52:56.876Z,18.10
2019-05-29T08:55:25.815Z,18.10
2019-05-29T08:57:54.734Z,18.30
2019-05-29T09:00:23.581Z,18.30
2019-05-29T09:02:52.802Z,18.00
2019-05-29T09:05:22.012Z,18.10
2019-05-29T09:07:52.187Z,18.30
2019-05-29T09:10:21.284Z,18.30
2019-05-29T09:13:03.422Z,18.60
2019-05-29T09:15:21.717Z,18.50
2019-05-29T09:17:51.028Z,18.70
2019-05-29T09:20:32.123Z,19.00
2019-05-29T09:22:50.560Z,19.30
2019-05-29T09:25:19.302Z,20.00
2019-05-29T09:27:48.206Z,20.70
2019-05-29T09:30:18.739Z,21.50
2019-05-29T09:32:50.852Z,21.30
2019-05-29T09:35:19.827Z,21.00
2019-05-29T09:37:48.936Z,21.00
2019-05-29T09:40:19.013Z,20.50
2019-05-29T09:42:48.192Z,20.30
2019-05-29T09:45:17.957Z,20.10
2019-05-29T09:47:47.175Z,20.40
2019-05-29T09:50:17.440Z,20.70
2019-05-29T09:52:49.927Z,20.70
2019-05-29T09:55:20.419Z,21.20
2019-05-29T09:57:49.249Z,21.90
2019-05-29T10:00:18.645Z,22.10
2019-05-29T10:02:47.496Z,21.80
2019-05-29T10:05:16.891Z,21.60
2019-05-29T10:07:45.741Z,21.60
2019-05-29T10:10:16.679Z,22.20
2019-05-29T10:12:45.530Z,21.90
2019-05-29T10:15:15.324Z,22.10
2019-05-29T10:17:44.280Z,21.60
2019-05-29T10:20:14.874Z,22.20
2019-05-29T10:22:43.986Z,23.30
2019-05-29T10:25:14.919Z,23.90
2019-05-29T10:27:43.786Z,22.30
2019-05-29T10:30:14.300Z,21.80
2019-05-29T10:32:44.520Z,22.00
2019-05-29T10:35:13.888Z,22.60
2019-05-29T10:37:42.933Z,21.80
2019-05-29T10:40:12.511Z,23.00
2019-05-29T10:42:41.387Z,24.20
2019-05-29T10:45:10.677Z,24.20
2019-05-29T10:47:39.547Z,22.90
2019-05-29T10:50:09.564Z,23.40
2019-05-29T10:52:38.453Z,23.60
2019-05-29T10:55:08.330Z,22.60
2019-05-29T10:57:37.126Z,22.70
2019-05-29T11:00:09.499Z,21.90
2019-05-29T11:02:38.298Z,21.40
2019-05-29T11:05:07.208Z,23.10
2019-05-29T11:07:36.079Z,23.80
2019-05-29T11:10:07.415Z,25.30
2019-05-29T11:12:39.337Z,26.20
2019-05-29T11:15:20.870Z,25.10
2019-05-29T11:17:38.111Z,24.30
2019-05-29T11:20:09.174Z,25.00
2019-05-29T11:22:39.837Z,26.20
2019-05-29T11:25:22.398Z,26.80
2019-05-29T11:27:48.461Z,26.70
2019-05-29T11:30:18.448Z,24.30
2019-05-29T11:32:49.902Z,22.50
2019-05-29T11:35:23.089Z,23.30
2019-05-29T11:37:54.644Z,24.10
2019-05-29T11:40:25.668Z,24.00
2019-05-29T11:42:59.145Z,25.10
2019-05-29T11:45:29.866Z,24.40
2019-05-29T11:48:05.240Z,23.70
2019-05-29T11:50:34.558Z,25.10
2019-05-29T11:53:04.074Z,25.60
2019-05-29T11:55:34.303Z,25.20
2019-05-29T11:58:06.500Z,24.70
2019-05-29T12:00:38.149Z,23.40
2019-05-29T12:03:07.183Z,22.30
2019-05-29T12:05:36.411Z,22.60
2019-05-29T12:08:06.091Z,24.00
2019-05-29T12:10:35.425Z,24.10
2019-05-29T12:13:07.659Z,24.90
2019-05-29T12:15:38.284Z,24.10
2019-05-29T12:18:22.662Z,23.00
2019-05-29T12:20:47.891Z,23.40
2019-05-29T12:23:25.698Z,23.00
2019-05-29T12:25:48.826Z,23.20
2019-05-29T12:28:17.984Z,22.10
2019-05-29T12:30:47.250Z,21.00
2019-05-29T12:33:17.210Z,21.10
2019-05-29T12:35:50.319Z,20.30
2019-05-29T12:38:21.075Z,19.40
2019-05-29T12:40:53.557Z,19.10
2019-05-29T12:43:27.634Z,18.60
2019-05-29T12:45:57.609Z,17.70
2019-05-29T12:48:26.700Z,17.60
2019-05-29T12:51:00.174Z,17.30
2019-05-29T12:53:31.266Z,17.60
2019-05-29T12:56:02.577Z,17.90
2019-05-29T12:58:31.449Z,18.90
2019-05-29T13:03:37.618Z,20.40
2019-05-29T13:06:06.496Z,20.30
2019-05-29T13:08:37.229Z,20.20
2019-05-29T13:11:07.547Z,19.30
2019-05-29T13:13:36.812Z,17.90
2019-05-29T13:16:08.934Z,17.80
2019-05-29T13:18:38.727Z,17.20
2019-05-29T13:21:07.535Z,17.20
2019-05-29T13:23:44.652Z,17.20
2019-05-29T13:26:09.467Z,17.40
2019-05-29T13:28:43.684Z,17.20
2019-05-29T13:31:15.735Z,16.80
2019-05-29T13:33:44.991Z,16.30
2019-05-29T13:36:16.111Z,16.30
2019-05-29T13:38:51.636Z,16.30
2019-05-29T13:41:20.415Z,16.00
2019-05-29T13:44:02.979Z,16.00
2019-05-29T13:46:32.854Z,15.80
2019-05-29T13:49:07.225Z,16.00
2019-05-29T13:51:36.846Z,16.00
2019-05-29T13:54:14.005Z,15.40
2019-05-29T13:56:37.482Z,15.40
2019-05-29T13:59:10.574Z,15.40
2019-05-29T14:01:42.025Z,15.40
2019-05-29T14:04:12.153Z,15.40
2019-05-29T14:06:53.030Z,15.80
2019-05-29T14:09:26.795Z,15.70
2019-05-29T14:11:58.945Z,15.90
2019-05-29T14:14:34.755Z,15.80
2019-05-29T14:17:08.657Z,15.60
2019-05-29T14:19:40.691Z,15.50
2019-05-29T14:22:14.866Z,15.20
2019-05-29T14:24:48.000Z,15.00
2019-05-29T14:27:18.992Z,15.30
2019-05-29T14:29:50.896Z,15.30
2019-05-29T14:32:21.380Z,15.60
2019-05-29T14:34:51.776Z,15.80
2019-05-29T14:37:21.372Z,16.00
2019-05-29T14:39:50.879Z,16.10
2019-05-29T14:42:24.850Z,16.40
2019-05-29T14:44:54.552Z,16.70
2019-05-29T14:47:23.944Z,16.70
2019-05-29T14:49:57.999Z,16.60
2019-05-29T14:52:29.385Z,16.60
2019-05-29T14:54:59.128Z,16.60
2019-05-29T14:57:30.377Z,16.70
2019-05-29T15:00:01.058Z,16.70
2019-05-29T15:02:31.863Z,16.60
2019-05-29T15:05:17.841Z,16.60
2019-05-29T15:07:48.771Z,16.40
2019-05-29T15:10:26.967Z,16.10
2019-05-29T15:12:58.163Z,15.90
2019-05-29T15:15:26.573Z,16.80
2019-05-29T15:18:00.727Z,17.80
2019-05-29T15:20:32.650Z,19.30
2019-05-29T15:23:05.291Z,19.50
2019-05-29T15:25:40.764Z,20.30
2019-05-29T15:28:13.623Z,20.10
2019-05-29T15:30:42.190Z,20.40
2019-05-29T15:33:12.587Z,20.00
2019-05-29T15:35:42.112Z,19.50
2019-05-29T15:38:12.829Z,18.20
2019-05-29T15:40:42.431Z,17.10
2019-05-29T15:43:12.852Z,17.00
2019-05-29T15:45:42.928Z,17.10
2019-05-29T15:48:13.542Z,17.10
2019-05-29T15:50:42.949Z,16.60
2019-05-29T15:53:15.205Z,16.50
2019-05-29T15:55:45.723Z,16.20
2019-05-29T16:01:05.469Z,15.40
2019-05-29T16:03:50.507Z,15.40
2019-05-29T16:06:36.373Z,15.40
2019-05-29T16:09:14.328Z,15.30
2019-05-29T16:11:43.428Z,15.00
2019-05-29T16:14:16.710Z,15.00
2019-05-29T16:16:46.551Z,15.20
2019-05-29T16:19:16.476Z,14.80
2019-05-29T16:21:45.649Z,14.70
2019-05-29T16:24:16.806Z,14.70
2019-05-29T16:26:46.180Z,14.80
2019-05-29T16:29:17.326Z,15.10
2019-05-29T16:31:47.361Z,15.50
2019-05-29T16:34:18.911Z,15.80
2019-05-29T16:36:47.198Z,15.40
2019-05-29T16:39:19.212Z,15.40
2019-05-29T16:41:49.571Z,14.70
2019-05-29T16:44:24.368Z,14.50
2019-05-29T16:46:52.308Z,14.60
2019-05-29T16:49:21.382Z,14.40
2019-05-29T16:51:50.360Z,14.00
2019-05-29T16:54:23.200Z,13.90
2019-05-29T16:57:01.545Z,13.70
2019-05-29T16:59:31.189Z,13.80
2019-05-29T17:02:07.399Z,13.90
2019-05-29T17:04:37.786Z,14.00
2019-05-29T17:07:10.944Z,13.80
2019-05-29T17:09:40.882Z,13.50
2019-05-29T17:12:10.836Z,13.40
2019-05-29T17:14:40.267Z,13.30
2019-05-29T17:17:12.489Z,13.30
2019-05-29T17:19:42.466Z,13.40
2019-05-29T17:22:16.473Z,13.40
2019-05-29T17:24:46.821Z,13.30
2019-05-29T17:27:21.240Z,13.20
2019-05-29T17:29:50.937Z,13.10
2019-05-29T17:32:21.170Z,13.00
2019-05-29T17:34:53.197Z,12.60
2019-05-29T17:37:23.154Z,12.60
2019-05-29T17:39:53.093Z,12.40
2019-05-29T17:42:24.494Z,12.40
2019-05-29T17:44:55.966Z,12.40
2019-05-29T17:47:25.746Z,12.40
2019-05-29T17:49:54.676Z,12.40
2019-05-29T17:52:25.961Z,12.40
2019-05-29T17:54:56.172Z,12.50
2019-05-29T17:57:26.135Z,12.60
2019-05-29T17:59:55.359Z,12.40
2019-05-29T18:02:27.761Z,12.30
2019-05-29T18:07:40.169Z,12.20
2019-05-29T18:10:10.160Z,12.10
2019-05-29T18:12:40.542Z,12.00
2019-05-29T18:15:11.153Z,12.00
2019-05-29T18:17:44.339Z,11.90
2019-05-29T18:20:17.878Z,11.90
2019-05-29T18:22:49.172Z,11.80
2019-05-29T18:25:21.924Z,11.80
2019-05-29T18:27:54.306Z,11.80
2019-05-29T18:30:24.400Z,11.70
2019-05-29T18:32:54.295Z,11.70
2019-05-29T18:35:24.982Z,11.70
2019-05-29T18:37:54.106Z,11.60
2019-05-29T18:40:26.402Z,11.60
2019-05-29T18:42:55.727Z,11.60
2019-05-29T18:45:27.734Z,11.50
2019-05-29T18:48:00.314Z,11.50
2019-05-29T18:50:29.665Z,11.40
2019-05-29T18:53:02.258Z,11.40
2019-05-29T18:55:30.644Z,11.40
2019-05-29T18:58:02.076Z,11.40
2019-05-29T19:00:37.873Z,11.30
2019-05-29T19:03:07.734Z,11.30
2019-05-29T19:05:39.459Z,11.30
2019-05-29T19:08:13.480Z,11.20
2019-05-29T19:10:43.696Z,11.20
2019-05-29T19:13:14.668Z,11.20
2019-05-29T19:15:47.025Z,11.10
2019-05-29T19:18:21.992Z,11.10
2019-05-29T19:20:51.850Z,11.10
2019-05-29T19:23:24.654Z,11.10
2019-05-29T19:25:53.665Z,11.00
2019-05-29T19:28:25.235Z,11.00
2019-05-29T19:31:14.835Z,11.10
2019-05-29T19:33:43.674Z,11.00
2019-05-29T19:36:15.663Z,10.90
2019-05-29T19:38:44.493Z,10.90
2019-05-29T19:41:13.328Z,10.90
2019-05-29T19:43:42.528Z,10.90
2019-05-29T19:46:15.791Z,10.90
2019-05-29T19:48:44.997Z,10.80
2019-05-29T19:51:16.807Z,10.90
2019-05-29T19:53:45.669Z,10.80
2019-05-29T19:56:16.199Z,10.80
2019-05-29T19:58:46.679Z,10.80
2019-05-29T20:01:30.078Z,10.80
2019-05-29T20:03:45.923Z,10.80
2019-05-29T20:06:16.162Z,10.90
2019-05-29T20:08:45.052Z,10.90
2019-05-29T20:11:13.907Z,10.80
2019-05-29T20:13:42.725Z,10.80
2019-05-29T20:16:11.492Z,10.80
2019-05-29T20:18:40.331Z,10.80
2019-05-29T20:21:09.139Z,10.70
2019-05-29T20:23:38.800Z,10.70
2019-05-29T20:26:07.753Z,10.70
2019-05-29T20:28:36.646Z,10.60
2019-05-29T20:31:06.225Z,10.40
2019-05-29T20:33:35.206Z,10.50
2019-05-29T20:36:04.466Z,10.50
2019-05-29T20:38:35.061Z,10.50
2019-05-29T20:41:04.120Z,10.40
2019-05-29T20:43:33.502Z,10.40
2019-05-29T20:46:07.126Z,10.40
2019-05-29T20:48:34.592Z,10.30
2019-05-29T20:51:06.042Z,10.30
2019-05-29T20:53:35.393Z,10.30
2019-05-29T20:56:07.459Z,10.20
2019-05-29T20:58:37.699Z,10.10
2019-05-29T21:01:07.217Z,10.20
2019-05-29T21:03:36.547Z,10.40
2019-05-29T21:06:06.040Z,10.60
2019-05-29T21:08:34.990Z,10.60
2019-05-29T21:11:04.236Z,10.60
2019-05-29T21:13:33.306Z,10.40
2019-05-29T21:16:02.436Z,10.30
2019-05-29T21:18:31.386Z,10.20
2019-05-29T21:21:00.285Z,10.40
2019-05-29T21:23:29.185Z,10.30
2019-05-29T21:25:58.025Z,10.40
2019-05-29T21:28:39.332Z,10.40
2019-05-29T21:30:58.825Z,10.20
2019-05-29T21:33:28.793Z,10.20
2019-05-29T21:35:57.647Z,10.00
2019-05-29T21:38:26.404Z,9.90
2019-05-29T21:40:55.690Z,10.00
2019-05-29T21:43:24.489Z,10.10
2019-05-29T21:45:53.316Z,10.00
2019-05-29T21:48:22.178Z,9.90
2019-05-29T21:50:51.028Z,9.90
2019-05-29T21:53:19.886Z,9.70
2019-05-29T21:55:50.292Z,9.60
2019-05-29T21:58:19.138Z,9.60
2019-05-29T22:00:51.409Z,9.50
2019-05-29T22:03:20.308Z,9.40
2019-05-29T22:05:49.384Z,9.30
2019-05-29T22:08:18.255Z,9.30
2019-05-29T22:10:47.517Z,9.20
2019-05-29T22:13:16.353Z,9.20
2019-05-29T22:15:45.162Z,9.10
2019-05-29T22:18:14.034Z,9.10
2019-05-29T22:20:42.877Z,9.10
2019-05-29T22:23:11.668Z,9.00
2019-05-29T22:25:40.588Z,8.90
2019-05-29T22:28:09.419Z,9.00
2019-05-29T22:30:38.242Z,8.90
2019-05-29T22:33:07.413Z,8.80
2019-05-29T22:35:36.312Z,8.80
2019-05-29T22:38:05.145Z,8.80
2019-05-29T22:40:33.977Z,8.80
2019-05-29T22:43:02.988Z,8.70
2019-05-29T22:45:31.789Z,8.70
2019-05-29T22:48:02.327Z,8.70
2019-05-29T22:50:31.307Z,8.60
2019-05-29T22:53:00.101Z,8.60
2019-05-29T22:55:28.872Z,8.60
2019-05-29T22:57:57.970Z,8.60
2019-05-29T23:00:26.752Z,8.50
2019-05-29T23:02:56.122Z,8.50
2019-05-29T23:05:25.120Z,8.50
2019-05-29T23:07:54.197Z,8.40
2019-05-29T23:10:23.088Z,8.40
2019-05-29T23:12:52.942Z,8.30
2019-05-29T23:15:22.224Z,8.30
2019-05-29T23:17:52.348Z,8.20
2019-05-29T23:20:21.321Z,8.20
2019-05-29T23:22:50.305Z,8.10
2019-05-29T23:25:19.141Z,8.10
2019-05-29T23:27:47.961Z,8.20
2019-05-29T23:30:16.878Z,8.20
2019-05-29T23:32:45.715Z,8.20
2019-05-29T23:35:14.533Z,8.20
2019-05-29T23:37:43.371Z,8.20
2019-05-29T23:40:12.617Z,8.20
2019-05-29T23:42:41.940Z,8.20
2019-05-29T23:45:11.743Z,8.20
2019-05-29T23:47:40.589Z,8.10
2019-05-29T23:50:10.508Z,8.00
2019-05-29T23:52:39.261Z,8.00
2019-05-29T23:55:08.296Z,7.90
2019-05-29T23:57:37.144Z,7.90
